createdAt,value
2023-01-26T00:01:16.454Z,77.90
2023-01-26T00:03:43.702Z,78.10
2023-01-26T00:06:13.709Z,78.00
2023-01-26T00:08:42.894Z,77.30
2023-01-26T00:11:11.512Z,77.40
2023-01-26T00:13:38.953Z,77.10
2023-01-26T00:16:10.305Z,77.70
2023-01-26T00:18:38.507Z,77.90
2023-01-26T00:21:06.751Z,77.50
2023-01-26T00:23:34.811Z,77.30
2023-01-26T00:26:01.923Z,77.40
2023-01-26T00:28:29.445Z,77.70
2023-01-26T00:31:07.436Z,77.30
2023-01-26T00:33:34.223Z,77.00
2023-01-26T00:36:00.905Z,76.70
2023-01-26T00:38:27.696Z,76.80
2023-01-26T00:40:54.704Z,77.40
2023-01-26T00:43:21.571Z,78.10
2023-01-26T00:45:48.451Z,77.40
2023-01-26T00:48:15.536Z,77.20
2023-01-26T00:50:42.372Z,77.50
2023-01-26T00:53:10.468Z,77.30
2023-01-26T00:55:37.296Z,77.70
2023-01-26T00:58:06.549Z,78.20
2023-01-26T01:00:35.703Z,78.00
2023-01-26T01:03:05.691Z,77.70
2023-01-26T01:05:33.350Z,78.00
2023-01-26T01:08:00.496Z,78.40
2023-01-26T01:10:27.608Z,78.30
2023-01-26T01:12:55.032Z,78.70
2023-01-26T01:15:23.761Z,78.10
2023-01-26T01:17:50.608Z,78.30
2023-01-26T01:20:17.415Z,78.40
2023-01-26T01:22:44.439Z,77.90
2023-01-26T01:25:11.238Z,77.90
2023-01-26T01:27:37.980Z,77.90
2023-01-26T01:30:08.180Z,79.00
2023-01-26T01:32:36.246Z,79.70
2023-01-26T01:35:03.663Z,79.70
2023-01-26T01:37:30.832Z,79.80
2023-01-26T01:39:57.615Z,79.60
2023-01-26T01:42:25.023Z,79.30
2023-01-26T01:45:33.069Z,79.10
2023-01-26T01:48:03.623Z,79.10
2023-01-26T01:50:35.782Z,79.30
2023-01-26T01:53:02.936Z,79.50
2023-01-26T01:55:29.776Z,80.10
2023-01-26T01:58:00.273Z,80.20
2023-01-26T02:00:27.660Z,80.60
2023-01-26T02:03:11.213Z,80.80
2023-01-26T02:05:42.597Z,80.70
2023-01-26T02:08:11.187Z,80.60
2023-01-26T02:10:38.095Z,80.60
2023-01-26T02:13:06.390Z,80.50
2023-01-26T02:15:33.219Z,80.70
2023-01-26T02:18:04.602Z,81.00
2023-01-26T02:20:49.324Z,81.20
2023-01-26T02:23:34.682Z,81.00
2023-01-26T02:26:07.157Z,80.70
2023-01-26T02:28:34.113Z,81.30
2023-01-26T02:31:03.405Z,81.40
2023-01-26T02:33:32.629Z,81.50
2023-01-26T02:36:03.137Z,81.50
2023-01-26T02:38:46.728Z,81.50
2023-01-26T02:41:35.787Z,81.60
2023-01-26T02:44:05.166Z,82.00
2023-01-26T02:46:32.045Z,82.20
2023-01-26T02:49:17.453Z,81.90
2023-01-26T02:51:44.172Z,82.70
2023-01-26T02:54:30.898Z,82.20
2023-01-26T02:56:59.066Z,82.30
2023-01-26T02:59:25.883Z,82.30
2023-01-26T03:01:54.017Z,82.30
2023-01-26T03:04:20.897Z,82.10
2023-01-26T03:06:47.595Z,82.50
2023-01-26T03:09:14.534Z,82.80
2023-01-26T03:11:44.197Z,83.20
2023-01-26T03:14:12.423Z,83.20
2023-01-26T03:16:39.562Z,83.00
2023-01-26T03:19:32.037Z,82.80
2023-01-26T03:22:18.025Z,82.60
2023-01-26T03:25:03.484Z,82.70
2023-01-26T03:27:37.622Z,82.70
2023-01-26T03:30:04.772Z,82.40
2023-01-26T03:32:32.017Z,82.90
2023-01-26T03:34:59.967Z,83.20
2023-01-26T03:37:26.805Z,83.20
2023-01-26T03:40:23.798Z,83.30
2023-01-26T03:43:10.079Z,83.20
2023-01-26T03:45:55.412Z,83.90
2023-01-26T03:48:43.266Z,84.00
2023-01-26T03:51:28.891Z,84.40
2023-01-26T03:54:15.299Z,84.60
2023-01-26T03:56:42.052Z,84.60
2023-01-26T03:59:15.370Z,84.80
2023-01-26T04:02:04.692Z,84.90
2023-01-26T04:04:51.363Z,85.30
2023-01-26T04:07:38.722Z,85.40
2023-01-26T04:10:06.416Z,84.80
2023-01-26T04:12:33.678Z,85.00
2023-01-26T04:15:32.549Z,85.80
2023-01-26T04:18:25.199Z,85.80
2023-01-26T04:21:10.674Z,85.60
2023-01-26T04:23:40.760Z,85.80
2023-01-26T04:26:07.475Z,86.10
2023-01-26T04:28:35.886Z,86.50
2023-01-26T04:31:04.628Z,86.00
2023-01-26T04:33:33.167Z,85.80
2023-01-26T04:36:07.891Z,86.30
2023-01-26T04:38:37.563Z,86.40
2023-01-26T04:41:04.747Z,86.80
2023-01-26T04:43:37.791Z,86.60
2023-01-26T04:46:07.108Z,86.50
2023-01-26T04:48:35.848Z,86.50
2023-01-26T04:51:05.270Z,86.40
2023-01-26T04:53:33.211Z,86.40
2023-01-26T04:56:00.668Z,86.10
2023-01-26T04:58:28.179Z,85.60
2023-01-26T05:00:57.377Z,85.90
2023-01-26T05:03:26.479Z,85.90
2023-01-26T05:05:54.804Z,85.90
2023-01-26T05:08:24.007Z,85.60
2023-01-26T05:10:52.292Z,85.40
2023-01-26T05:13:22.983Z,85.10
2023-01-26T05:16:03.772Z,85.00
2023-01-26T05:18:50.853Z,85.10
2023-01-26T05:21:37.834Z,84.80
2023-01-26T05:24:04.852Z,84.80
2023-01-26T05:27:10.126Z,84.50
2023-01-26T05:29:39.071Z,84.60
2023-01-26T05:32:06.034Z,84.80
2023-01-26T05:34:33.545Z,84.80
2023-01-26T05:37:01.143Z,84.40
2023-01-26T05:39:29.917Z,84.80
2023-01-26T05:41:58.063Z,85.20
2023-01-26T05:44:37.084Z,85.00
2023-01-26T05:47:09.699Z,84.40
2023-01-26T05:49:42.751Z,83.90
2023-01-26T05:52:16.407Z,83.80
2023-01-26T05:54:43.792Z,83.70
2023-01-26T05:57:10.960Z,83.80
2023-01-26T05:59:41.941Z,83.90
2023-01-26T06:02:12.444Z,84.00
2023-01-26T06:04:41.089Z,84.10
2023-01-26T06:07:07.867Z,84.70
2023-01-26T06:09:38.002Z,84.90
2023-01-26T06:12:35.321Z,85.50
2023-01-26T06:15:10.608Z,85.50
2023-01-26T06:17:41.275Z,85.50
2023-01-26T06:20:11.326Z,85.70
2023-01-26T06:22:38.452Z,85.70
2023-01-26T06:25:05.408Z,85.70
2023-01-26T06:27:32.109Z,86.40
2023-01-26T06:30:05.356Z,86.20
2023-01-26T06:32:32.508Z,86.40
2023-01-26T06:34:59.303Z,86.30
2023-01-26T06:37:26.198Z,86.80
2023-01-26T06:39:53.612Z,86.40
2023-01-26T06:42:20.403Z,86.40
2023-01-26T06:44:47.309Z,86.60
2023-01-26T06:47:14.919Z,86.60
2023-01-26T06:49:42.477Z,86.70
2023-01-26T06:52:32.724Z,86.10
2023-01-26T06:55:32.933Z,86.00
2023-01-26T06:58:14.642Z,86.00
2023-01-26T07:00:59.362Z,85.80
2023-01-26T07:03:32.926Z,86.30
2023-01-26T07:05:59.758Z,86.00
2023-01-26T07:08:26.541Z,85.20
2023-01-26T07:10:53.338Z,85.70
2023-01-26T07:13:20.096Z,85.80
2023-01-26T07:15:46.781Z,85.50
2023-01-26T07:18:13.551Z,85.00
2023-01-26T07:20:40.359Z,85.30
2023-01-26T07:23:07.079Z,84.90
2023-01-26T07:25:33.848Z,85.00
2023-01-26T07:28:00.604Z,85.10
2023-01-26T07:30:27.508Z,85.50
2023-01-26T07:32:54.236Z,85.50
2023-01-26T07:35:21.017Z,85.00
2023-01-26T07:37:47.714Z,85.20
2023-01-26T07:40:14.655Z,84.80
2023-01-26T07:42:41.422Z,85.00
2023-01-26T07:45:18.515Z,85.40
2023-01-26T07:47:45.257Z,85.00
2023-01-26T07:50:13.190Z,84.20
2023-01-26T07:52:40.547Z,84.40
2023-01-26T07:55:07.766Z,83.70
2023-01-26T07:57:34.868Z,83.40
2023-01-26T08:00:01.894Z,83.70
2023-01-26T08:02:38.816Z,83.70
2023-01-26T08:05:06.517Z,83.50
2023-01-26T08:07:33.482Z,83.00
2023-01-26T08:10:00.390Z,83.10
2023-01-26T08:12:27.405Z,83.20
2023-01-26T08:14:54.156Z,82.90
2023-01-26T08:17:20.867Z,83.20
2023-01-26T08:19:47.795Z,83.40
2023-01-26T08:22:14.497Z,83.50
2023-01-26T08:24:41.177Z,82.90
2023-01-26T08:27:07.901Z,82.20
2023-01-26T08:29:34.627Z,83.10
2023-01-26T08:32:01.399Z,83.20
2023-01-26T08:34:28.233Z,83.40
2023-01-26T08:36:54.915Z,82.90
2023-01-26T08:39:21.742Z,83.00
2023-01-26T08:41:48.753Z,82.20
2023-01-26T08:44:15.492Z,82.10
2023-01-26T08:46:44.293Z,82.30
2023-01-26T08:49:11.165Z,82.20
2023-01-26T08:51:37.864Z,82.20
2023-01-26T08:54:08.313Z,82.00
2023-01-26T08:56:35.307Z,81.90
2023-01-26T08:59:02.278Z,82.10
2023-01-26T09:01:29.018Z,82.00
2023-01-26T09:03:56.325Z,82.00
2023-01-26T09:06:23.163Z,81.70
2023-01-26T09:08:50.089Z,82.10
2023-01-26T09:11:17.080Z,82.30
2023-01-26T09:13:43.790Z,82.10
2023-01-26T09:16:19.116Z,82.00
2023-01-26T09:18:48.815Z,81.30
2023-01-26T09:21:15.611Z,81.80
2023-01-26T09:23:42.383Z,81.50
2023-01-26T09:26:09.399Z,81.30
2023-01-26T09:28:36.172Z,81.80
2023-01-26T09:31:07.722Z,81.20
2023-01-26T09:33:34.631Z,80.90
2023-01-26T09:36:10.959Z,81.20
2023-01-26T09:38:38.248Z,81.20
2023-01-26T09:41:21.352Z,81.20
2023-01-26T09:43:51.589Z,80.40
2023-01-26T09:46:30.928Z,80.90
2023-01-26T09:49:15.276Z,80.40
2023-01-26T09:51:52.001Z,79.90
2023-01-26T09:54:36.759Z,80.20
2023-01-26T09:57:12.534Z,79.70
2023-01-26T09:59:53.850Z,80.20
2023-01-26T10:02:20.731Z,80.70
2023-01-26T10:04:53.095Z,80.20
2023-01-26T10:07:20.032Z,80.00
2023-01-26T10:09:51.754Z,80.80
2023-01-26T10:12:24.440Z,80.50
2023-01-26T10:15:28.801Z,80.80
2023-01-26T10:17:56.218Z,80.00
2023-01-26T10:20:34.142Z,80.20
2023-01-26T10:23:16.035Z,80.70
2023-01-26T10:25:46.146Z,80.70
2023-01-26T10:28:15.616Z,80.70
2023-01-26T10:30:44.749Z,80.40
2023-01-26T10:33:19.049Z,80.90
2023-01-26T10:35:46.204Z,81.30
2023-01-26T10:38:28.600Z,81.90
2023-01-26T10:40:55.914Z,81.60
2023-01-26T10:43:24.708Z,81.30
2023-01-26T10:45:51.615Z,81.40
2023-01-26T10:48:26.691Z,80.50
2023-01-26T10:50:54.212Z,80.20
2023-01-26T10:53:29.492Z,80.00
2023-01-26T10:56:14.467Z,79.80
2023-01-26T10:58:55.515Z,80.30
2023-01-26T11:01:27.343Z,80.60
2023-01-26T11:04:04.744Z,80.80
2023-01-26T11:06:32.530Z,80.40
2023-01-26T11:09:15.190Z,80.50
2023-01-26T11:11:44.306Z,80.90
2023-01-26T11:14:15.030Z,80.90
2023-01-26T11:16:54.522Z,81.10
2023-01-26T11:19:39.977Z,81.30
2023-01-26T11:22:13.217Z,81.50
2023-01-26T11:24:57.271Z,81.70
2023-01-26T11:27:36.014Z,81.30
2023-01-26T11:30:36.173Z,81.60
2023-01-26T11:33:33.017Z,81.40
2023-01-26T11:36:13.708Z,81.40
2023-01-26T11:38:42.907Z,81.40
2023-01-26T11:41:37.824Z,81.60
2023-01-26T11:44:32.765Z,81.90
2023-01-26T11:47:49.122Z,82.10
2023-01-26T11:50:28.619Z,82.40
2023-01-26T11:53:24.786Z,82.50
2023-01-26T11:56:10.583Z,83.00
2023-01-26T11:58:55.785Z,82.90
2023-01-26T12:01:33.547Z,83.50
2023-01-26T12:04:00.318Z,83.10
2023-01-26T12:06:45.606Z,81.70
2023-01-26T12:09:45.543Z,82.40
2023-01-26T12:12:40.132Z,82.10
2023-01-26T12:15:19.732Z,82.10
2023-01-26T12:18:01.552Z,82.40
2023-01-26T12:20:50.031Z,83.20
2023-01-26T12:23:31.756Z,83.20
2023-01-26T12:26:16.163Z,83.30
2023-01-26T12:29:09.447Z,83.20
2023-01-26T12:32:00.253Z,83.30
2023-01-26T12:34:29.412Z,83.20
2023-01-26T12:37:02.501Z,83.90
2023-01-26T12:39:37.041Z,83.90
2023-01-26T12:42:32.820Z,83.40
2023-01-26T12:45:02.021Z,83.70
2023-01-26T12:47:39.342Z,83.60
2023-01-26T12:50:30.211Z,83.70
2023-01-26T12:53:17.739Z,83.50
2023-01-26T12:56:07.551Z,84.70
2023-01-26T12:58:42.077Z,84.30
2023-01-26T13:01:18.664Z,84.20
2023-01-26T13:03:50.659Z,84.00
2023-01-26T13:06:22.095Z,83.70
2023-01-26T13:08:53.624Z,83.80
2023-01-26T13:11:39.294Z,84.00
2023-01-26T13:14:37.294Z,83.90
2023-01-26T13:17:16.468Z,84.40
2023-01-26T13:19:43.230Z,84.40
2023-01-26T13:22:40.685Z,84.50
2023-01-26T13:25:19.342Z,84.70
2023-01-26T13:28:01.686Z,84.90
2023-01-26T13:30:31.356Z,84.70
2023-01-26T13:33:19.886Z,84.70
2023-01-26T13:35:48.106Z,85.00
2023-01-26T13:38:20.273Z,85.20
2023-01-26T13:40:50.343Z,84.80
2023-01-26T13:43:39.170Z,84.70
2023-01-26T13:46:11.410Z,84.70
2023-01-26T13:48:54.930Z,84.00
2023-01-26T13:51:28.100Z,84.00
2023-01-26T13:54:14.712Z,83.80
2023-01-26T13:56:44.074Z,84.30
2023-01-26T13:59:16.738Z,84.30
2023-01-26T14:01:49.431Z,84.30
2023-01-26T14:04:21.630Z,84.50
2023-01-26T14:07:00.995Z,84.30
2023-01-26T14:09:31.236Z,84.00
2023-01-26T14:12:03.714Z,83.90
2023-01-26T14:14:34.773Z,83.80
2023-01-26T14:17:07.231Z,84.00
2023-01-26T14:19:41.162Z,84.20
2023-01-26T14:22:12.771Z,84.20
2023-01-26T14:24:41.177Z,84.60
2023-01-26T14:27:29.803Z,85.10
2023-01-26T14:29:57.939Z,84.80
2023-01-26T14:32:25.558Z,84.80
2023-01-26T14:34:54.401Z,84.80
2023-01-26T14:37:21.239Z,85.10
2023-01-26T14:39:48.315Z,85.20
2023-01-26T14:42:20.044Z,85.00
2023-01-26T14:44:47.455Z,85.30
2023-01-26T14:47:34.957Z,85.40
2023-01-26T14:50:06.523Z,86.20
2023-01-26T14:52:39.509Z,86.60
2023-01-26T14:55:17.130Z,86.70
2023-01-26T14:57:43.951Z,86.60
2023-01-26T15:00:23.298Z,86.40
2023-01-26T15:02:53.840Z,86.60
2023-01-26T15:05:23.566Z,86.90
2023-01-26T15:08:18.165Z,87.00
2023-01-26T15:11:22.694Z,86.80
2023-01-26T15:13:55.626Z,86.80
2023-01-26T15:16:24.801Z,86.70
2023-01-26T15:18:59.804Z,86.00
2023-01-26T15:21:40.256Z,86.50
2023-01-26T15:24:13.785Z,86.50
2023-01-26T15:26:41.362Z,86.30
2023-01-26T15:29:26.726Z,86.10
2023-01-26T15:31:56.027Z,86.10
2023-01-26T15:34:33.164Z,86.50
2023-01-26T15:37:01.256Z,86.80
2023-01-26T15:39:28.343Z,87.00
2023-01-26T15:42:15.990Z,86.60
2023-01-26T15:44:42.711Z,86.10
2023-01-26T15:47:11.292Z,85.70
2023-01-26T15:49:39.044Z,86.40
2023-01-26T15:52:16.846Z,86.60
2023-01-26T15:54:43.783Z,86.60
2023-01-26T15:57:11.922Z,86.50
2023-01-26T15:59:39.379Z,87.10
2023-01-26T16:02:18.137Z,87.30
2023-01-26T16:04:45.410Z,87.20
2023-01-26T16:07:14.274Z,87.20
2023-01-26T16:09:41.695Z,87.10
2023-01-26T16:12:31.545Z,87.20
2023-01-26T16:14:59.143Z,87.50
2023-01-26T16:17:25.928Z,87.20
2023-01-26T16:19:52.724Z,87.00
2023-01-26T16:22:19.904Z,87.50
2023-01-26T16:24:46.891Z,87.60
2023-01-26T16:27:13.708Z,87.90
2023-01-26T16:29:40.780Z,88.30
2023-01-26T16:32:30.952Z,88.50
2023-01-26T16:34:57.721Z,88.80
2023-01-26T16:37:24.559Z,88.90
2023-01-26T16:39:51.338Z,89.20
2023-01-26T16:42:21.131Z,89.40
2023-01-26T16:44:48.403Z,89.40
2023-01-26T16:47:15.399Z,89.50
2023-01-26T16:49:42.114Z,89.40
2023-01-26T16:52:09.875Z,89.30
2023-01-26T16:54:36.799Z,89.10
2023-01-26T16:57:03.947Z,89.20
2023-01-26T16:59:30.921Z,89.30
2023-01-26T17:01:58.095Z,89.30
2023-01-26T17:04:24.908Z,89.20
2023-01-26T17:06:51.792Z,89.40
2023-01-26T17:09:18.598Z,89.60
2023-01-26T17:11:45.353Z,89.70
2023-01-26T17:14:12.864Z,89.90
2023-01-26T17:16:39.778Z,89.90
2023-01-26T17:19:09.104Z,89.90
2023-01-26T17:21:36.158Z,90.00
2023-01-26T17:24:03.034Z,90.20
2023-01-26T17:26:29.931Z,89.90
2023-01-26T17:28:56.771Z,90.00
2023-01-26T17:31:24.643Z,89.90
2023-01-26T17:33:51.676Z,90.10
2023-01-26T17:36:20.044Z,90.10
2023-01-26T17:38:48.174Z,89.90
2023-01-26T17:41:15.593Z,90.00
2023-01-26T17:43:42.438Z,90.00
2023-01-26T17:46:12.481Z,90.20
2023-01-26T17:48:40.243Z,90.40
2023-01-26T17:51:11.833Z,90.30
2023-01-26T17:53:39.996Z,90.30
2023-01-26T17:56:09.401Z,90.20
2023-01-26T17:58:37.117Z,90.00
2023-01-26T18:01:05.766Z,90.10
2023-01-26T18:03:32.910Z,90.20
2023-01-26T18:05:59.883Z,90.40
2023-01-26T18:08:27.483Z,90.50
2023-01-26T18:11:02.209Z,90.60
2023-01-26T18:13:30.164Z,90.60
2023-01-26T18:15:56.999Z,90.50
2023-01-26T18:18:29.174Z,90.60
2023-01-26T18:20:56.311Z,90.70
2023-01-26T18:23:24.680Z,90.60
2023-01-26T18:25:51.850Z,90.70
2023-01-26T18:28:18.630Z,90.60
2023-01-26T18:30:45.536Z,90.20
2023-01-26T18:33:12.574Z,89.90
2023-01-26T18:35:40.480Z,89.60
2023-01-26T18:38:07.319Z,89.70
2023-01-26T18:40:34.265Z,89.70
2023-01-26T18:43:01.233Z,89.80
2023-01-26T18:45:29.210Z,90.00
2023-01-26T18:47:56.031Z,90.00
2023-01-26T18:50:23.063Z,90.10
2023-01-26T18:52:50.875Z,90.10
2023-01-26T18:55:17.702Z,90.00
2023-01-26T18:57:44.450Z,89.80
2023-01-26T19:00:13.867Z,89.60
2023-01-26T19:02:40.847Z,89.70
2023-01-26T19:05:07.962Z,89.80
2023-01-26T19:07:35.104Z,89.80
2023-01-26T19:10:04.664Z,90.00
2023-01-26T19:12:31.560Z,90.20
2023-01-26T19:14:58.345Z,90.00
2023-01-26T19:17:25.151Z,90.10
2023-01-26T19:19:51.927Z,90.00
2023-01-26T19:22:18.729Z,89.80
2023-01-26T19:24:45.522Z,90.10
2023-01-26T19:27:12.264Z,90.00
2023-01-26T19:29:38.996Z,89.80
2023-01-26T19:32:06.131Z,89.70
2023-01-26T19:34:33.731Z,89.90
2023-01-26T19:37:00.692Z,90.00
2023-01-26T19:39:27.434Z,90.00
2023-01-26T19:41:54.252Z,90.00
2023-01-26T19:44:20.959Z,90.10
2023-01-26T19:46:51.328Z,89.80
2023-01-26T19:49:18.825Z,89.60
2023-01-26T19:51:45.615Z,89.10
2023-01-26T19:54:13.747Z,89.30
2023-01-26T19:56:41.126Z,89.50
2023-01-26T19:59:10.469Z,90.00
2023-01-26T20:01:37.239Z,89.90
2023-01-26T20:04:06.917Z,89.80
2023-01-26T20:06:35.544Z,89.30
2023-01-26T20:09:03.861Z,89.40
2023-01-26T20:11:30.899Z,89.40
2023-01-26T20:13:59.763Z,89.60
2023-01-26T20:16:28.476Z,89.60
2023-01-26T20:18:56.747Z,89.90
2023-01-26T20:21:24.253Z,90.00
2023-01-26T20:23:54.933Z,89.90
2023-01-26T20:26:22.786Z,90.10
2023-01-26T20:28:49.625Z,90.10
2023-01-26T20:31:20.447Z,90.30
2023-01-26T20:33:48.968Z,90.30
2023-01-26T20:36:18.765Z,90.10
2023-01-26T20:38:47.324Z,90.10
2023-01-26T20:41:16.776Z,90.20
2023-01-26T20:43:58.093Z,90.20
2023-01-26T20:46:29.330Z,90.30
2023-01-26T20:48:56.793Z,90.20
2023-01-26T20:51:30.186Z,90.40
2023-01-26T20:53:57.629Z,90.20
2023-01-26T20:56:24.423Z,90.10
2023-01-26T20:58:55.471Z,89.40
2023-01-26T21:01:23.269Z,89.20
2023-01-26T21:03:50.642Z,89.20
2023-01-26T21:06:19.127Z,87.90
2023-01-26T21:08:47.629Z,88.20
2023-01-26T21:11:15.963Z,88.60
2023-01-26T21:13:43.325Z,88.80
2023-01-26T21:16:12.972Z,89.00
2023-01-26T21:18:40.222Z,89.00
2023-01-26T21:21:10.545Z,89.00
2023-01-26T21:23:37.318Z,88.50
2023-01-26T21:26:10.026Z,88.30
2023-01-26T21:28:37.009Z,88.30
2023-01-26T21:31:05.583Z,88.30
2023-01-26T21:33:34.029Z,88.20
2023-01-26T21:36:02.418Z,87.90
2023-01-26T21:38:34.812Z,87.60
2023-01-26T21:41:04.387Z,87.50
2023-01-26T21:43:31.273Z,87.60
2023-01-26T21:45:59.168Z,88.00
2023-01-26T21:48:31.812Z,88.00
2023-01-26T21:51:17.661Z,87.50
2023-01-26T21:53:44.667Z,87.60
2023-01-26T21:56:14.715Z,87.80
2023-01-26T21:58:54.033Z,87.90
2023-01-26T22:01:21.915Z,87.90
2023-01-26T22:03:48.755Z,88.00
2023-01-26T22:06:15.788Z,88.20
2023-01-26T22:08:42.499Z,87.70
2023-01-26T22:11:09.206Z,87.40
2023-01-26T22:13:36.756Z,87.40
2023-01-26T22:16:04.683Z,87.10
2023-01-26T22:18:31.578Z,87.20
2023-01-26T22:20:58.309Z,86.90
2023-01-26T22:23:25.042Z,87.10
2023-01-26T22:25:51.928Z,87.50
2023-01-26T22:28:18.706Z,87.70
2023-01-26T22:30:45.423Z,87.60
2023-01-26T22:33:12.217Z,87.60
2023-01-26T22:35:39.063Z,87.70
2023-01-26T22:38:05.779Z,87.20
2023-01-26T22:40:32.580Z,86.90
2023-01-26T22:42:59.458Z,86.60
2023-01-26T22:45:26.269Z,86.10
2023-01-26T22:47:53.459Z,86.40
2023-01-26T22:50:20.175Z,86.50
2023-01-26T22:52:46.991Z,86.50
2023-01-26T22:55:13.731Z,86.90
2023-01-26T22:57:40.561Z,86.70
2023-01-26T23:00:08.050Z,86.60
2023-01-26T23:02:34.898Z,86.80
2023-01-26T23:05:01.803Z,87.40
2023-01-26T23:07:29.095Z,87.50
2023-01-26T23:09:55.911Z,87.40
2023-01-26T23:12:22.685Z,87.90
2023-01-26T23:14:49.410Z,87.80
2023-01-26T23:17:16.197Z,88.40
2023-01-26T23:19:42.900Z,87.90
2023-01-26T23:22:09.655Z,87.60
2023-01-26T23:24:36.314Z,87.80
2023-01-26T23:27:03.082Z,87.70
2023-01-26T23:29:29.801Z,87.60
2023-01-26T23:31:56.508Z,87.20
2023-01-26T23:34:23.295Z,87.30
2023-01-26T23:36:49.999Z,87.50
2023-01-26T23:39:16.778Z,87.40
2023-01-26T23:41:43.494Z,87.30
2023-01-26T23:44:11.615Z,87.20
2023-01-26T23:46:38.490Z,87.40
2023-01-26T23:49:05.265Z,87.20
2023-01-26T23:51:31.946Z,86.80
2023-01-26T23:53:58.636Z,86.80
2023-01-26T23:56:25.323Z,87.30
2023-01-26T23:58:52.049Z,87.40
